Alma, Michigan
Current Conditions -  °F | °C
As of 9:35 PM on Friday 31 Oct 2014 (Local Time) from KAMN Reporting Station
Overcast Overcast  
Wind Chill: 22°   Ceiling: 3200
Heat Index: 34°   Visibility: 10mi
Dew Point: 23°   Wind: 20mph
Humidity: 65%   Direction: 360°N
Pressure: 30.24"   Gusts: 29mph
Location:  43.38°N, 84.66°W
Report Text: KAMN 010135Z AUTO 36017G25KT 10SM OVC032 01/M05 A3024 RMK AO2 T00101050
Loading
Personal Weather Stations






























Interactive Weather Map
Tropical Storm Tracking
New forecast layout! Learn more

10-Day Weather Forecast

Advertisements
Track Severe Weather on mobile